sensor_id;sensor_type;location;lat;lon;timestamp;temperature;humidity
20242;DHT22;10279;46.388;8.116;2024-03-23T00:53:25;9.20;99.90
20242;DHT22;10279;46.388;8.116;2024-03-23T00:55:50;9.10;99.90
20242;DHT22;10279;46.388;8.116;2024-03-23T00:58:17;9.10;99.90
20242;DHT22;10279;46.388;8.116;2024-03-23T01:00:43;9.10;99.90
20242;DHT22;10279;46.388;8.116;2024-03-23T01:03:09;9.10;99.90
20242;DHT22;10279;46.388;8.116;2024-03-23T01:05:35;9.10;99.90
20242;DHT22;10279;46.388;8.116;2024-03-23T01:08:01;9.10;99.90
20242;DHT22;10279;46.388;8.116;2024-03-23T01:10:28;9.10;99.90
20242;DHT22;10279;46.388;8.116;2024-03-23T01:12:54;9.10;99.90
20242;DHT22;10279;46.388;8.116;2024-03-23T01:15:20;9.00;99.90
20242;DHT22;10279;46.388;8.116;2024-03-23T01:17:46;9.00;99.90
20242;DHT22;10279;46.388;8.116;2024-03-23T01:20:12;9.00;99.90
20242;DHT22;10279;46.388;8.116;2024-03-23T01:22:38;9.00;99.90
20242;DHT22;10279;46.388;8.116;2024-03-23T01:25:04;9.00;99.90
20242;DHT22;10279;46.388;8.116;2024-03-23T01:27:30;9.00;99.90
20242;DHT22;10279;46.388;8.116;2024-03-23T01:29:56;8.90;99.90
20242;DHT22;10279;46.388;8.116;2024-03-23T01:32:22;8.90;99.90
20242;DHT22;10279;46.388;8.116;2024-03-23T01:34:48;8.90;99.90
20242;DHT22;10279;46.388;8.116;2024-03-23T01:37:14;9.00;99.90
20242;DHT22;10279;46.388;8.116;2024-03-23T01:39:40;8.90;99.90
20242;DHT22;10279;46.388;8.116;2024-03-23T01:42:06;8.90;99.90
20242;DHT22;10279;46.388;8.116;2024-03-23T01:44:32;8.80;99.90
20242;DHT22;10279;46.388;8.116;2024-03-23T01:46:58;8.80;99.90
20242;DHT22;10279;46.388;8.116;2024-03-23T01:49:24;8.70;99.90
20242;DHT22;10279;46.388;8.116;2024-03-23T01:51:50;8.70;99.90
20242;DHT22;10279;46.388;8.116;2024-03-23T01:54:16;8.70;99.90
20242;DHT22;10279;46.388;8.116;2024-03-23T01:56:42;8.70;99.90
20242;DHT22;10279;46.388;8.116;2024-03-23T01:59:08;8.70;99.90
20242;DHT22;10279;46.388;8.116;2024-03-23T02:01:35;8.70;99.90
20242;DHT22;10279;46.388;8.116;2024-03-23T02:04:04;8.60;99.90
20242;DHT22;10279;46.388;8.116;2024-03-23T02:06:30;8.60;99.90
20242;DHT22;10279;46.388;8.116;2024-03-23T02:08:57;8.60;99.90
20242;DHT22;10279;46.388;8.116;2024-03-23T02:11:23;8.50;99.90
20242;DHT22;10279;46.388;8.116;2024-03-23T02:13:49;8.60;99.90
20242;DHT22;10279;46.388;8.116;2024-03-23T02:16:15;8.60;99.90
20242;DHT22;10279;46.388;8.116;2024-03-23T02:18:41;8.60;99.90
20242;DHT22;10279;46.388;8.116;2024-03-23T02:21:07;8.70;99.90
20242;DHT22;10279;46.388;8.116;2024-03-23T02:23:33;8.70;99.90
20242;DHT22;10279;46.388;8.116;2024-03-23T02:25:59;8.70;99.90
20242;DHT22;10279;46.388;8.116;2024-03-23T02:28:25;8.80;99.90
20242;DHT22;10279;46.388;8.116;2024-03-23T02:30:52;8.70;99.90
20242;DHT22;10279;46.388;8.116;2024-03-23T02:33:18;8.70;99.90
20242;DHT22;10279;46.388;8.116;2024-03-23T02:35:45;8.60;99.90
20242;DHT22;10279;46.388;8.116;2024-03-23T02:38:11;8.50;99.90
20242;DHT22;10279;46.388;8.116;2024-03-23T02:40:37;8.50;99.90
20242;DHT22;10279;46.388;8.116;2024-03-23T02:43:04;8.60;99.90
20242;DHT22;10279;46.388;8.116;2024-03-23T02:45:30;8.60;99.90
20242;DHT22;10279;46.388;8.116;2024-03-23T02:47:56;8.60;99.90
20242;DHT22;10279;46.388;8.116;2024-03-23T02:50:23;8.50;99.90
20242;DHT22;10279;46.388;8.116;2024-03-23T02:52:49;8.60;99.90
20242;DHT22;10279;46.388;8.116;2024-03-23T02:55:15;8.50;99.90
20242;DHT22;10279;46.388;8.116;2024-03-23T02:57:41;8.50;99.90
20242;DHT22;10279;46.388;8.116;2024-03-23T03:00:08;8.50;99.90
20242;DHT22;10279;46.388;8.116;2024-03-23T03:02:35;8.40;99.90
20242;DHT22;10279;46.388;8.116;2024-03-23T03:05:01;8.40;99.90
20242;DHT22;10279;46.388;8.116;2024-03-23T03:07:27;8.40;99.90
20242;DHT22;10279;46.388;8.116;2024-03-23T03:09:53;8.40;99.90
20242;DHT22;10279;46.388;8.116;2024-03-23T03:12:19;8.40;99.90
20242;DHT22;10279;46.388;8.116;2024-03-23T03:14:45;8.40;99.90
20242;DHT22;10279;46.388;8.116;2024-03-23T03:17:11;8.40;99.90
20242;DHT22;10279;46.388;8.116;2024-03-23T03:19:37;8.30;99.90
20242;DHT22;10279;46.388;8.116;2024-03-23T03:22:03;8.30;99.90
20242;DHT22;10279;46.388;8.116;2024-03-23T03:24:30;8.20;99.90
20242;DHT22;10279;46.388;8.116;2024-03-23T03:26:56;8.20;99.90
20242;DHT22;10279;46.388;8.116;2024-03-23T03:29:24;8.10;99.90
20242;DHT22;10279;46.388;8.116;2024-03-23T03:31:50;8.20;99.90
20242;DHT22;10279;46.388;8.116;2024-03-23T03:34:16;8.20;99.90
20242;DHT22;10279;46.388;8.116;2024-03-23T03:36:42;8.20;99.90
20242;DHT22;10279;46.388;8.116;2024-03-23T03:39:08;8.20;99.90
20242;DHT22;10279;46.388;8.116;2024-03-23T03:41:35;8.10;99.90
20242;DHT22;10279;46.388;8.116;2024-03-23T03:44:01;8.10;99.90
20242;DHT22;10279;46.388;8.116;2024-03-23T03:46:28;8.20;99.90
20242;DHT22;10279;46.388;8.116;2024-03-23T03:48:54;8.20;99.90
20242;DHT22;10279;46.388;8.116;2024-03-23T03:51:20;8.10;99.90
20242;DHT22;10279;46.388;8.116;2024-03-23T03:53:47;8.10;99.90
20242;DHT22;10279;46.388;8.116;2024-03-23T03:56:13;8.00;99.90
20242;DHT22;10279;46.388;8.116;2024-03-23T03:58:39;8.00;99.90
20242;DHT22;10279;46.388;8.116;2024-03-23T04:01:06;8.00;99.90
20242;DHT22;10279;46.388;8.116;2024-03-23T04:03:32;8.00;99.90
20242;DHT22;10279;46.388;8.116;2024-03-23T04:05:58;8.10;99.90
20242;DHT22;10279;46.388;8.116;2024-03-23T04:08:24;8.10;99.90
20242;DHT22;10279;46.388;8.116;2024-03-23T04:10:50;8.10;99.90
20242;DHT22;10279;46.388;8.116;2024-03-23T04:13:16;8.00;99.90
20242;DHT22;10279;46.388;8.116;2024-03-23T04:15:42;8.00;99.90
20242;DHT22;10279;46.388;8.116;2024-03-23T04:18:08;8.10;99.90
20242;DHT22;10279;46.388;8.116;2024-03-23T04:20:35;8.00;99.90
20242;DHT22;10279;46.388;8.116;2024-03-23T04:23:01;8.00;99.90
20242;DHT22;10279;46.388;8.116;2024-03-23T04:25:27;8.00;99.90
20242;DHT22;10279;46.388;8.116;2024-03-23T04:27:53;8.10;99.90
20242;DHT22;10279;46.388;8.116;2024-03-23T04:30:19;8.10;99.90
20242;DHT22;10279;46.388;8.116;2024-03-23T04:32:46;8.10;99.90
20242;DHT22;10279;46.388;8.116;2024-03-23T04:35:13;8.00;99.90
20242;DHT22;10279;46.388;8.116;2024-03-23T04:37:39;8.00;99.90
20242;DHT22;10279;46.388;8.116;2024-03-23T04:40:09;8.10;99.90
20242;DHT22;10279;46.388;8.116;2024-03-23T04:42:37;8.10;99.90
20242;DHT22;10279;46.388;8.116;2024-03-23T04:45:04;8.20;99.90
20242;DHT22;10279;46.388;8.116;2024-03-23T04:47:32;8.30;99.90
20242;DHT22;10279;46.388;8.116;2024-03-23T04:49:58;8.20;99.90
20242;DHT22;10279;46.388;8.116;2024-03-23T04:52:24;8.20;99.90
20242;DHT22;10279;46.388;8.116;2024-03-23T04:54:50;8.20;99.90
20242;DHT22;10279;46.388;8.116;2024-03-23T04:57:16;8.30;99.90
20242;DHT22;10279;46.388;8.116;2024-03-23T04:59:42;8.30;99.90
20242;DHT22;10279;46.388;8.116;2024-03-23T05:02:08;8.30;99.90
20242;DHT22;10279;46.388;8.116;2024-03-23T05:04:35;8.40;99.90
20242;DHT22;10279;46.388;8.116;2024-03-23T05:07:03;8.40;99.90
20242;DHT22;10279;46.388;8.116;2024-03-23T05:09:30;8.30;99.90
20242;DHT22;10279;46.388;8.116;2024-03-23T05:11:57;8.30;99.90
20242;DHT22;10279;46.388;8.116;2024-03-23T05:14:26;8.30;99.90
20242;DHT22;10279;46.388;8.116;2024-03-23T05:16:53;8.20;99.90
20242;DHT22;10279;46.388;8.116;2024-03-23T05:19:19;8.20;99.90
20242;DHT22;10279;46.388;8.116;2024-03-23T05:21:45;8.30;99.90
20242;DHT22;10279;46.388;8.116;2024-03-23T05:24:12;8.30;99.90
20242;DHT22;10279;46.388;8.116;2024-03-23T05:26:38;8.30;99.90
20242;DHT22;10279;46.388;8.116;2024-03-23T05:29:04;8.30;99.90
20242;DHT22;10279;46.388;8.116;2024-03-23T05:31:32;8.40;99.90
20242;DHT22;10279;46.388;8.116;2024-03-23T05:33:58;8.30;99.90
20242;DHT22;10279;46.388;8.116;2024-03-23T05:36:24;8.30;99.90
20242;DHT22;10279;46.388;8.116;2024-03-23T05:38:50;8.30;99.90
20242;DHT22;10279;46.388;8.116;2024-03-23T05:41:16;8.30;99.90
20242;DHT22;10279;46.388;8.116;2024-03-23T05:43:42;8.40;99.90
20242;DHT22;10279;46.388;8.116;2024-03-23T05:46:09;8.50;99.90
20242;DHT22;10279;46.388;8.116;2024-03-23T05:48:36;8.50;99.90
20242;DHT22;10279;46.388;8.116;2024-03-23T05:51:02;8.60;99.90
20242;DHT22;10279;46.388;8.116;2024-03-23T05:53:28;8.60;99.90
20242;DHT22;10279;46.388;8.116;2024-03-23T05:56:03;8.70;99.90
20242;DHT22;10279;46.388;8.116;2024-03-23T05:58:33;8.70;99.90
20242;DHT22;10279;46.388;8.116;2024-03-23T06:01:00;8.80;99.90
20242;DHT22;10279;46.388;8.116;2024-03-23T06:03:28;8.80;99.90
20242;DHT22;10279;46.388;8.116;2024-03-23T06:05:54;8.90;99.90
20242;DHT22;10279;46.388;8.116;2024-03-23T06:08:21;9.00;99.90
20242;DHT22;10279;46.388;8.116;2024-03-23T06:10:48;9.00;99.90
20242;DHT22;10279;46.388;8.116;2024-03-23T06:13:15;9.00;99.90
20242;DHT22;10279;46.388;8.116;2024-03-23T06:15:41;9.00;99.90
20242;DHT22;10279;46.388;8.116;2024-03-23T06:18:07;8.90;99.90
20242;DHT22;10279;46.388;8.116;2024-03-23T06:20:34;8.80;99.90
20242;DHT22;10279;46.388;8.116;2024-03-23T06:23:03;8.80;99.90
20242;DHT22;10279;46.388;8.116;2024-03-23T06:25:29;8.90;99.90
20242;DHT22;10279;46.388;8.116;2024-03-23T06:27:56;8.90;99.90
20242;DHT22;10279;46.388;8.116;2024-03-23T06:30:24;9.00;99.90
20242;DHT22;10279;46.388;8.116;2024-03-23T06:32:52;8.90;99.90
20242;DHT22;10279;46.388;8.116;2024-03-23T06:35:19;9.00;99.90
20242;DHT22;10279;46.388;8.116;2024-03-23T06:37:45;9.00;99.90
20242;DHT22;10279;46.388;8.116;2024-03-23T06:40:11;9.10;99.90
20242;DHT22;10279;46.388;8.116;2024-03-23T06:42:37;9.10;99.90
20242;DHT22;10279;46.388;8.116;2024-03-23T06:45:04;9.20;99.90
20242;DHT22;10279;46.388;8.116;2024-03-23T06:47:33;9.20;99.90
20242;DHT22;10279;46.388;8.116;2024-03-23T06:50:00;9.10;99.90
20242;DHT22;10279;46.388;8.116;2024-03-23T06:52:29;9.20;99.90
20242;DHT22;10279;46.388;8.116;2024-03-23T06:54:56;9.20;99.90
20242;DHT22;10279;46.388;8.116;2024-03-23T06:57:22;9.20;99.90
20242;DHT22;10279;46.388;8.116;2024-03-23T06:59:48;9.10;99.90
20242;DHT22;10279;46.388;8.116;2024-03-23T07:02:15;9.00;99.90
20242;DHT22;10279;46.388;8.116;2024-03-23T07:04:42;8.90;99.90
20242;DHT22;10279;46.388;8.116;2024-03-23T07:07:08;8.70;99.90
20242;DHT22;10279;46.388;8.116;2024-03-23T07:09:34;8.40;99.90
20242;DHT22;10279;46.388;8.116;2024-03-23T07:12:00;8.30;99.90
20242;DHT22;10279;46.388;8.116;2024-03-23T07:14:26;8.20;99.90
20242;DHT22;10279;46.388;8.116;2024-03-23T07:16:52;8.20;99.90
20242;DHT22;10279;46.388;8.116;2024-03-23T07:19:21;8.20;99.90
20242;DHT22;10279;46.388;8.116;2024-03-23T07:21:47;8.10;99.90
20242;DHT22;10279;46.388;8.116;2024-03-23T07:24:14;8.10;99.90
20242;DHT22;10279;46.388;8.116;2024-03-23T07:26:40;8.20;99.90
20242;DHT22;10279;46.388;8.116;2024-03-23T07:29:06;8.40;99.90
20242;DHT22;10279;46.388;8.116;2024-03-23T07:31:33;8.60;99.90
20242;DHT22;10279;46.388;8.116;2024-03-23T07:33:59;8.80;99.90
20242;DHT22;10279;46.388;8.116;2024-03-23T07:36:25;8.90;99.90
20242;DHT22;10279;46.388;8.116;2024-03-23T07:38:51;8.90;99.90
20242;DHT22;10279;46.388;8.116;2024-03-23T07:41:19;8.80;99.90
20242;DHT22;10279;46.388;8.116;2024-03-23T07:43:47;8.70;99.90
20242;DHT22;10279;46.388;8.116;2024-03-23T07:46:15;8.50;99.90
20242;DHT22;10279;46.388;8.116;2024-03-23T07:48:43;8.50;99.90
20242;DHT22;10279;46.388;8.116;2024-03-23T07:51:27;8.70;99.90
20242;DHT22;10279;46.388;8.116;2024-03-23T07:53:53;8.80;99.90
20242;DHT22;10279;46.388;8.116;2024-03-23T07:56:19;9.00;99.90
20242;DHT22;10279;46.388;8.116;2024-03-23T07:58:47;9.10;99.90
20242;DHT22;10279;46.388;8.116;2024-03-23T08:01:17;9.30;99.90
20242;DHT22;10279;46.388;8.116;2024-03-23T08:03:44;9.40;99.90
20242;DHT22;10279;46.388;8.116;2024-03-23T08:08:42;9.80;99.90
20242;DHT22;10279;46.388;8.116;2024-03-23T08:11:08;9.90;99.90
20242;DHT22;10279;46.388;8.116;2024-03-23T08:13:35;10.10;99.90
20242;DHT22;10279;46.388;8.116;2024-03-23T08:16:03;10.20;99.90
20242;DHT22;10279;46.388;8.116;2024-03-23T08:18:31;10.20;99.90
20242;DHT22;10279;46.388;8.116;2024-03-23T08:23:24;10.30;99.90
20242;DHT22;10279;46.388;8.116;2024-03-23T08:26:00;10.40;99.90
20242;DHT22;10279;46.388;8.116;2024-03-23T08:28:27;10.50;99.90
20242;DHT22;10279;46.388;8.116;2024-03-23T08:30:54;10.50;99.90
20242;DHT22;10279;46.388;8.116;2024-03-23T08:33:21;10.60;99.90
20242;DHT22;10279;46.388;8.116;2024-03-23T08:36:02;10.70;99.90
20242;DHT22;10279;46.388;8.116;2024-03-23T08:38:29;10.80;99.90
20242;DHT22;10279;46.388;8.116;2024-03-23T08:41:08;10.80;99.90
20242;DHT22;10279;46.388;8.116;2024-03-23T08:43:39;10.60;99.90
20242;DHT22;10279;46.388;8.116;2024-03-23T08:46:08;10.30;99.90
20242;DHT22;10279;46.388;8.116;2024-03-23T08:48:42;9.90;99.90
20242;DHT22;10279;46.388;8.116;2024-03-23T08:51:11;9.90;99.90
20242;DHT22;10279;46.388;8.116;2024-03-23T08:53:37;10.00;99.90
20242;DHT22;10279;46.388;8.116;2024-03-23T08:56:04;9.90;99.90
20242;DHT22;10279;46.388;8.116;2024-03-23T08:58:32;9.80;99.90
20242;DHT22;10279;46.388;8.116;2024-03-23T09:01:10;9.60;99.90
20242;DHT22;10279;46.388;8.116;2024-03-23T09:03:36;9.50;99.90
20242;DHT22;10279;46.388;8.116;2024-03-23T09:06:07;9.40;99.90
20242;DHT22;10279;46.388;8.116;2024-03-23T09:08:33;9.30;99.90
20242;DHT22;10279;46.388;8.116;2024-03-23T09:11:09;9.30;99.90
20242;DHT22;10279;46.388;8.116;2024-03-23T09:13:37;9.30;99.90
20242;DHT22;10279;46.388;8.116;2024-03-23T09:16:04;9.20;99.90
20242;DHT22;10279;46.388;8.116;2024-03-23T09:18:36;9.20;99.90
20242;DHT22;10279;46.388;8.116;2024-03-23T09:21:12;9.30;99.90
20242;DHT22;10279;46.388;8.116;2024-03-23T09:23:43;9.30;99.90
20242;DHT22;10279;46.388;8.116;2024-03-23T09:26:10;9.30;99.90
20242;DHT22;10279;46.388;8.116;2024-03-23T09:28:36;9.30;99.90
20242;DHT22;10279;46.388;8.116;2024-03-23T09:31:06;9.20;99.90
20242;DHT22;10279;46.388;8.116;2024-03-23T09:33:33;9.10;99.90
20242;DHT22;10279;46.388;8.116;2024-03-23T09:36:04;9.10;99.90
20242;DHT22;10279;46.388;8.116;2024-03-23T09:38:30;9.30;99.90
20242;DHT22;10279;46.388;8.116;2024-03-23T09:40:58;9.40;99.90
20242;DHT22;10279;46.388;8.116;2024-03-23T09:43:25;9.40;99.90
20242;DHT22;10279;46.388;8.116;2024-03-23T09:45:52;9.30;99.90
20242;DHT22;10279;46.388;8.116;2024-03-23T09:48:19;9.40;99.90
20242;DHT22;10279;46.388;8.116;2024-03-23T09:50:46;9.50;99.90
20242;DHT22;10279;46.388;8.116;2024-03-23T09:53:13;9.60;99.90
20242;DHT22;10279;46.388;8.116;2024-03-23T09:55:41;9.90;99.90
20242;DHT22;10279;46.388;8.116;2024-03-23T09:58:08;10.10;99.90
20242;DHT22;10279;46.388;8.116;2024-03-23T10:00:37;10.30;99.90
20242;DHT22;10279;46.388;8.116;2024-03-23T10:03:04;10.20;99.90
20242;DHT22;10279;46.388;8.116;2024-03-23T10:05:32;10.30;99.90
20242;DHT22;10279;46.388;8.116;2024-03-23T10:10:43;10.30;99.90
20242;DHT22;10279;46.388;8.116;2024-03-23T10:13:10;10.20;99.90
20242;DHT22;10279;46.388;8.116;2024-03-23T10:15:39;10.30;99.90
20242;DHT22;10279;46.388;8.116;2024-03-23T10:18:19;10.40;99.90
20242;DHT22;10279;46.388;8.116;2024-03-23T10:23:33;11.00;99.90
20242;DHT22;10279;46.388;8.116;2024-03-23T10:26:18;11.20;99.90
20242;DHT22;10279;46.388;8.116;2024-03-23T10:29:01;11.30;99.90
20242;DHT22;10279;46.388;8.116;2024-03-23T10:31:28;11.20;99.90
20242;DHT22;10279;46.388;8.116;2024-03-23T10:33:55;11.00;99.90
20242;DHT22;10279;46.388;8.116;2024-03-23T10:36:22;10.70;99.90
20242;DHT22;10279;46.388;8.116;2024-03-23T10:38:50;10.30;99.90
20242;DHT22;10279;46.388;8.116;2024-03-23T10:41:18;10.10;99.90
20242;DHT22;10279;46.388;8.116;2024-03-23T10:43:48;9.80;99.90
20242;DHT22;10279;46.388;8.116;2024-03-23T10:46:15;9.80;99.90
20242;DHT22;10279;46.388;8.116;2024-03-23T10:48:41;9.90;99.90
20242;DHT22;10279;46.388;8.116;2024-03-23T10:51:10;10.20;99.90
20242;DHT22;10279;46.388;8.116;2024-03-23T10:53:36;10.30;99.90
20242;DHT22;10279;46.388;8.116;2024-03-23T10:56:06;10.20;99.90
20242;DHT22;10279;46.388;8.116;2024-03-23T11:01:02;9.80;99.90
20242;DHT22;10279;46.388;8.116;2024-03-23T11:03:33;9.60;99.90
20242;DHT22;10279;46.388;8.116;2024-03-23T11:06:00;9.40;99.90
20242;DHT22;10279;46.388;8.116;2024-03-23T11:08:40;9.20;99.90
20242;DHT22;10279;46.388;8.116;2024-03-23T11:11:19;9.00;99.90
20242;DHT22;10279;46.388;8.116;2024-03-23T11:13:50;8.90;99.90
20242;DHT22;10279;46.388;8.116;2024-03-23T11:18:51;8.60;99.90
20242;DHT22;10279;46.388;8.116;2024-03-23T11:21:55;8.60;99.90
20242;DHT22;10279;46.388;8.116;2024-03-23T11:24:21;8.60;99.90
20242;DHT22;10279;46.388;8.116;2024-03-23T11:26:51;8.80;99.90
20242;DHT22;10279;46.388;8.116;2024-03-23T11:29:17;8.90;99.90
20242;DHT22;10279;46.388;8.116;2024-03-23T11:31:51;9.00;99.90
20242;DHT22;10279;46.388;8.116;2024-03-23T11:34:19;9.00;99.90
20242;DHT22;10279;46.388;8.116;2024-03-23T11:36:46;9.10;99.90
20242;DHT22;10279;46.388;8.116;2024-03-23T11:39:19;9.40;99.90
20242;DHT22;10279;46.388;8.116;2024-03-23T11:44:22;9.70;99.90
20242;DHT22;10279;46.388;8.116;2024-03-23T11:46:49;10.00;99.90
20242;DHT22;10279;46.388;8.116;2024-03-23T11:49:22;10.30;99.90
20242;DHT22;10279;46.388;8.116;2024-03-23T11:51:48;10.60;99.90
20242;DHT22;10279;46.388;8.116;2024-03-23T11:54:14;10.60;99.90
20242;DHT22;10279;46.388;8.116;2024-03-23T11:56:41;10.70;99.90
20242;DHT22;10279;46.388;8.116;2024-03-23T11:59:36;10.70;99.90
20242;DHT22;10279;46.388;8.116;2024-03-23T12:02:21;10.80;99.90
20242;DHT22;10279;46.388;8.116;2024-03-23T12:04:47;10.70;99.90
20242;DHT22;10279;46.388;8.116;2024-03-23T12:07:20;10.60;99.90
20242;DHT22;10279;46.388;8.116;2024-03-23T12:10:03;10.80;99.90
20242;DHT22;10279;46.388;8.116;2024-03-23T12:12:29;11.40;99.90
20242;DHT22;10279;46.388;8.116;2024-03-23T12:15:06;11.70;99.90
20242;DHT22;10279;46.388;8.116;2024-03-23T12:17:34;11.80;99.90
20242;DHT22;10279;46.388;8.116;2024-03-23T12:20:01;12.00;99.90
20242;DHT22;10279;46.388;8.116;2024-03-23T12:22:27;12.30;99.90
20242;DHT22;10279;46.388;8.116;2024-03-23T12:24:55;12.10;99.90
20242;DHT22;10279;46.388;8.116;2024-03-23T12:27:22;11.80;99.90
20242;DHT22;10279;46.388;8.116;2024-03-23T12:29:48;11.40;99.90
20242;DHT22;10279;46.388;8.116;2024-03-23T12:32:14;10.70;99.70
20242;DHT22;10279;46.388;8.116;2024-03-23T12:34:42;10.40;99.60
20242;DHT22;10279;46.388;8.116;2024-03-23T12:37:08;10.10;99.60
20242;DHT22;10279;46.388;8.116;2024-03-23T12:39:35;9.90;99.90
20242;DHT22;10279;46.388;8.116;2024-03-23T12:42:02;9.70;99.90
20242;DHT22;10279;46.388;8.116;2024-03-23T12:44:31;9.60;99.90
20242;DHT22;10279;46.388;8.116;2024-03-23T12:46:57;9.50;99.90
20242;DHT22;10279;46.388;8.116;2024-03-23T12:49:23;9.40;99.90
20242;DHT22;10279;46.388;8.116;2024-03-23T12:51:56;9.40;99.90
20242;DHT22;10279;46.388;8.116;2024-03-23T12:54:23;9.40;99.90
20242;DHT22;10279;46.388;8.116;2024-03-23T12:56:49;9.40;99.90
20242;DHT22;10279;46.388;8.116;2024-03-23T12:59:15;9.50;99.90
20242;DHT22;10279;46.388;8.116;2024-03-23T13:01:43;9.60;99.00
20242;DHT22;10279;46.388;8.116;2024-03-23T13:04:12;9.90;99.50
20242;DHT22;10279;46.388;8.116;2024-03-23T13:06:38;10.20;99.30
20242;DHT22;10279;46.388;8.116;2024-03-23T13:09:04;10.60;99.00
20242;DHT22;10279;46.388;8.116;2024-03-23T13:11:31;11.00;98.30
20242;DHT22;10279;46.388;8.116;2024-03-23T13:13:57;11.30;97.60
20242;DHT22;10279;46.388;8.116;2024-03-23T13:16:23;11.50;93.30
20242;DHT22;10279;46.388;8.116;2024-03-23T13:18:50;11.60;93.30
20242;DHT22;10279;46.388;8.116;2024-03-23T13:21:16;11.60;93.70
20242;DHT22;10279;46.388;8.116;2024-03-23T13:23:42;11.70;93.10
20242;DHT22;10279;46.388;8.116;2024-03-23T13:26:11;11.60;92.10
20242;DHT22;10279;46.388;8.116;2024-03-23T13:28:37;11.60;93.10
20242;DHT22;10279;46.388;8.116;2024-03-23T13:31:03;11.20;87.30
20242;DHT22;10279;46.388;8.116;2024-03-23T13:33:30;11.10;89.80
20242;DHT22;10279;46.388;8.116;2024-03-23T13:35:58;11.30;87.80
20242;DHT22;10279;46.388;8.116;2024-03-23T13:38:24;11.20;87.30
20242;DHT22;10279;46.388;8.116;2024-03-23T13:43:17;11.10;88.10
20242;DHT22;10279;46.388;8.116;2024-03-23T13:45:43;10.70;89.00
20242;DHT22;10279;46.388;8.116;2024-03-23T13:48:09;10.40;90.10
20242;DHT22;10279;46.388;8.116;2024-03-23T13:50:35;10.70;88.20
20242;DHT22;10279;46.388;8.116;2024-03-23T13:53:01;10.80;89.70
20242;DHT22;10279;46.388;8.116;2024-03-23T13:55:28;10.60;87.70
20242;DHT22;10279;46.388;8.116;2024-03-23T13:57:54;10.50;89.60
20242;DHT22;10279;46.388;8.116;2024-03-23T14:00:20;10.70;89.00
20242;DHT22;10279;46.388;8.116;2024-03-23T14:02:46;10.80;87.20
20242;DHT22;10279;46.388;8.116;2024-03-23T14:05:12;10.90;84.00
20242;DHT22;10279;46.388;8.116;2024-03-23T14:07:38;10.80;85.80
20242;DHT22;10279;46.388;8.116;2024-03-23T14:10:05;10.50;86.00
20242;DHT22;10279;46.388;8.116;2024-03-23T14:12:36;10.60;84.40
20242;DHT22;10279;46.388;8.116;2024-03-23T14:15:07;10.70;87.40
20242;DHT22;10279;46.388;8.116;2024-03-23T14:17:34;10.90;86.60
20242;DHT22;10279;46.388;8.116;2024-03-23T14:20:00;10.80;87.30
20242;DHT22;10279;46.388;8.116;2024-03-23T14:22:29;10.70;85.70
20242;DHT22;10279;46.388;8.116;2024-03-23T14:24:55;10.60;87.80
20242;DHT22;10279;46.388;8.116;2024-03-23T14:27:21;10.40;86.90
20242;DHT22;10279;46.388;8.116;2024-03-23T14:29:48;10.50;88.80
20242;DHT22;10279;46.388;8.116;2024-03-23T14:32:14;10.90;91.30
20242;DHT22;10279;46.388;8.116;2024-03-23T14:34:41;11.00;89.40
20242;DHT22;10279;46.388;8.116;2024-03-23T14:37:07;10.70;85.80
20242;DHT22;10279;46.388;8.116;2024-03-23T14:39:34;10.70;89.10
20242;DHT22;10279;46.388;8.116;2024-03-23T14:42:01;11.00;87.70
20242;DHT22;10279;46.388;8.116;2024-03-23T14:44:28;10.70;88.10
20242;DHT22;10279;46.388;8.116;2024-03-23T14:46:54;10.60;86.90
20242;DHT22;10279;46.388;8.116;2024-03-23T14:49:21;10.30;87.10
20242;DHT22;10279;46.388;8.116;2024-03-23T14:51:47;10.00;89.30
20242;DHT22;10279;46.388;8.116;2024-03-23T14:54:13;10.10;89.60
20242;DHT22;10279;46.388;8.116;2024-03-23T14:56:39;10.20;89.90
20242;DHT22;10279;46.388;8.116;2024-03-23T14:59:06;10.20;90.20
20242;DHT22;10279;46.388;8.116;2024-03-23T15:01:33;10.40;90.70
20242;DHT22;10279;46.388;8.116;2024-03-23T15:04:00;10.60;88.30
20242;DHT22;10279;46.388;8.116;2024-03-23T15:06:26;10.50;87.40
20242;DHT22;10279;46.388;8.116;2024-03-23T15:08:52;10.60;90.20
20242;DHT22;10279;46.388;8.116;2024-03-23T15:11:18;10.60;91.10
20242;DHT22;10279;46.388;8.116;2024-03-23T15:13:45;10.70;87.60
20242;DHT22;10279;46.388;8.116;2024-03-23T15:16:17;10.80;89.20
20242;DHT22;10279;46.388;8.116;2024-03-23T15:18:46;10.90;87.80
20242;DHT22;10279;46.388;8.116;2024-03-23T15:21:12;10.90;86.00
20242;DHT22;10279;46.388;8.116;2024-03-23T15:23:40;11.10;85.20
20242;DHT22;10279;46.388;8.116;2024-03-23T15:26:09;11.00;84.60
20242;DHT22;10279;46.388;8.116;2024-03-23T15:28:36;10.80;81.70
20242;DHT22;10279;46.388;8.116;2024-03-23T15:31:25;10.60;81.70
20242;DHT22;10279;46.388;8.116;2024-03-23T15:33:51;10.20;84.40
20242;DHT22;10279;46.388;8.116;2024-03-23T15:36:18;10.00;84.00
20242;DHT22;10279;46.388;8.116;2024-03-23T15:38:44;10.00;84.70
20242;DHT22;10279;46.388;8.116;2024-03-23T15:41:11;9.80;85.00
20242;DHT22;10279;46.388;8.116;2024-03-23T15:43:37;10.10;86.10
20242;DHT22;10279;46.388;8.116;2024-03-23T15:46:05;10.40;85.60
20242;DHT22;10279;46.388;8.116;2024-03-23T15:48:32;10.50;85.80
20242;DHT22;10279;46.388;8.116;2024-03-23T15:50:59;10.50;85.90
20242;DHT22;10279;46.388;8.116;2024-03-23T15:53:26;10.50;85.40
20242;DHT22;10279;46.388;8.116;2024-03-23T15:55:57;10.50;86.40
20242;DHT22;10279;46.388;8.116;2024-03-23T15:58:23;10.60;86.20
20242;DHT22;10279;46.388;8.116;2024-03-23T16:01:02;10.70;85.60
20242;DHT22;10279;46.388;8.116;2024-03-23T16:03:29;10.60;86.70
20242;DHT22;10279;46.388;8.116;2024-03-23T16:05:58;10.40;85.40
20242;DHT22;10279;46.388;8.116;2024-03-23T16:08:25;10.10;87.40
20242;DHT22;10279;46.388;8.116;2024-03-23T16:10:52;9.80;88.60
20242;DHT22;10279;46.388;8.116;2024-03-23T16:13:19;9.50;87.70
20242;DHT22;10279;46.388;8.116;2024-03-23T16:15:46;9.20;88.70
20242;DHT22;10279;46.388;8.116;2024-03-23T16:18:19;9.10;90.30
20242;DHT22;10279;46.388;8.116;2024-03-23T16:21:00;9.10;90.00
20242;DHT22;10279;46.388;8.116;2024-03-23T16:23:26;9.00;91.60
20242;DHT22;10279;46.388;8.116;2024-03-23T16:25:54;9.00;90.80
20242;DHT22;10279;46.388;8.116;2024-03-23T16:31:05;8.90;90.80
20242;DHT22;10279;46.388;8.116;2024-03-23T16:33:35;9.10;90.80
20242;DHT22;10279;46.388;8.116;2024-03-23T16:36:09;9.10;90.60
20242;DHT22;10279;46.388;8.116;2024-03-23T16:38:38;8.90;90.80
20242;DHT22;10279;46.388;8.116;2024-03-23T16:41:05;8.60;91.30
20242;DHT22;10279;46.388;8.116;2024-03-23T16:43:35;8.60;92.10
20242;DHT22;10279;46.388;8.116;2024-03-23T16:46:04;8.70;91.80
20242;DHT22;10279;46.388;8.116;2024-03-23T16:48:32;8.70;91.90
20242;DHT22;10279;46.388;8.116;2024-03-23T16:50:59;8.60;92.10
20242;DHT22;10279;46.388;8.116;2024-03-23T16:53:26;8.60;91.80
20242;DHT22;10279;46.388;8.116;2024-03-23T16:56:00;8.60;92.50
20242;DHT22;10279;46.388;8.116;2024-03-23T16:58:30;8.60;92.60